sensor_id;sensor_type;location;lat;lon;timestamp;temperature;humidity
23540;DHT22;11947;50.810;4.394;2023-04-03T00:01:07;3.60;99.90
23540;DHT22;11947;50.810;4.394;2023-04-03T00:03:33;3.70;99.90
23540;DHT22;11947;50.810;4.394;2023-04-03T00:05:59;3.60;99.90
23540;DHT22;11947;50.810;4.394;2023-04-03T00:08:25;3.60;99.90
23540;DHT22;11947;50.810;4.394;2023-04-03T00:10:50;3.50;99.90
23540;DHT22;11947;50.810;4.394;2023-04-03T00:13:16;3.50;99.90
23540;DHT22;11947;50.810;4.394;2023-04-03T00:15:42;3.50;99.90
23540;DHT22;11947;50.810;4.394;2023-04-03T00:18:08;3.60;99.90
23540;DHT22;11947;50.810;4.394;2023-04-03T00:20:34;3.50;99.90
23540;DHT22;11947;50.810;4.394;2023-04-03T00:23:01;3.40;99.90
23540;DHT22;11947;50.810;4.394;2023-04-03T00:25:27;3.40;99.90
23540;DHT22;11947;50.810;4.394;2023-04-03T00:27:52;3.50;99.90
23540;DHT22;11947;50.810;4.394;2023-04-03T00:30:19;3.50;99.90
23540;DHT22;11947;50.810;4.394;2023-04-03T00:32:50;3.50;99.90
23540;DHT22;11947;50.810;4.394;2023-04-03T00:35:17;3.70;99.90
23540;DHT22;11947;50.810;4.394;2023-04-03T00:37:43;3.60;99.90
23540;DHT22;11947;50.810;4.394;2023-04-03T00:40:09;3.40;99.90
23540;DHT22;11947;50.810;4.394;2023-04-03T00:42:40;3.50;99.90
23540;DHT22;11947;50.810;4.394;2023-04-03T00:47:31;3.40;99.90
23540;DHT22;11947;50.810;4.394;2023-04-03T00:49:58;3.40;99.90
23540;DHT22;11947;50.810;4.394;2023-04-03T00:52:28;3.40;99.90
23540;DHT22;11947;50.810;4.394;2023-04-03T00:54:59;3.30;99.90
23540;DHT22;11947;50.810;4.394;2023-04-03T00:57:27;3.30;99.90
23540;DHT22;11947;50.810;4.394;2023-04-03T01:00:03;3.40;99.90
23540;DHT22;11947;50.810;4.394;2023-04-03T01:02:29;3.40;99.90
23540;DHT22;11947;50.810;4.394;2023-04-03T01:04:55;3.40;99.90
23540;DHT22;11947;50.810;4.394;2023-04-03T01:07:23;3.50;99.90
23540;DHT22;11947;50.810;4.394;2023-04-03T01:09:55;3.50;99.90
23540;DHT22;11947;50.810;4.394;2023-04-03T01:12:26;3.60;99.90
23540;DHT22;11947;50.810;4.394;2023-04-03T01:14:55;3.60;99.90
23540;DHT22;11947;50.810;4.394;2023-04-03T01:17:51;3.50;99.90
23540;DHT22;11947;50.810;4.394;2023-04-03T01:25:47;3.20;99.90
23540;DHT22;11947;50.810;4.394;2023-04-03T01:33:30;3.30;99.90
23540;DHT22;11947;50.810;4.394;2023-04-03T01:35:55;3.20;99.90
23540;DHT22;11947;50.810;4.394;2023-04-03T01:38:21;3.10;99.90
23540;DHT22;11947;50.810;4.394;2023-04-03T01:40:47;3.20;99.90
23540;DHT22;11947;50.810;4.394;2023-04-03T01:43:12;3.20;99.90
23540;DHT22;11947;50.810;4.394;2023-04-03T01:45:38;3.00;99.90
23540;DHT22;11947;50.810;4.394;2023-04-03T01:48:04;3.00;99.90
23540;DHT22;11947;50.810;4.394;2023-04-03T01:50:29;3.00;99.90
23540;DHT22;11947;50.810;4.394;2023-04-03T01:52:55;3.10;99.90
23540;DHT22;11947;50.810;4.394;2023-04-03T01:55:21;3.10;99.90
23540;DHT22;11947;50.810;4.394;2023-04-03T01:57:46;3.00;99.90
23540;DHT22;11947;50.810;4.394;2023-04-03T02:00:12;3.10;99.90
23540;DHT22;11947;50.810;4.394;2023-04-03T02:02:38;3.00;99.90
23540;DHT22;11947;50.810;4.394;2023-04-03T02:05:04;3.10;99.90
23540;DHT22;11947;50.810;4.394;2023-04-03T02:07:30;3.10;99.90
23540;DHT22;11947;50.810;4.394;2023-04-03T02:09:56;3.10;99.90
23540;DHT22;11947;50.810;4.394;2023-04-03T02:12:21;3.10;99.90
23540;DHT22;11947;50.810;4.394;2023-04-03T02:14:47;3.00;99.90
23540;DHT22;11947;50.810;4.394;2023-04-03T02:17:13;3.10;99.90
23540;DHT22;11947;50.810;4.394;2023-04-03T02:19:38;3.10;99.90
23540;DHT22;11947;50.810;4.394;2023-04-03T02:22:04;2.90;99.90
23540;DHT22;11947;50.810;4.394;2023-04-03T02:24:31;2.90;99.90
23540;DHT22;11947;50.810;4.394;2023-04-03T02:26:57;2.90;99.90
23540;DHT22;11947;50.810;4.394;2023-04-03T02:29:22;2.90;99.90
23540;DHT22;11947;50.810;4.394;2023-04-03T02:31:49;2.90;99.90
23540;DHT22;11947;50.810;4.394;2023-04-03T02:34:15;2.90;99.90
23540;DHT22;11947;50.810;4.394;2023-04-03T02:36:40;2.80;99.90
23540;DHT22;11947;50.810;4.394;2023-04-03T02:39:06;2.80;99.90
23540;DHT22;11947;50.810;4.394;2023-04-03T02:41:31;2.80;99.90
23540;DHT22;11947;50.810;4.394;2023-04-03T02:44:05;2.70;99.90
23540;DHT22;11947;50.810;4.394;2023-04-03T02:46:31;2.80;99.90
23540;DHT22;11947;50.810;4.394;2023-04-03T02:48:57;2.80;99.90
23540;DHT22;11947;50.810;4.394;2023-04-03T02:51:22;2.80;99.90
23540;DHT22;11947;50.810;4.394;2023-04-03T02:53:49;2.80;99.90
23540;DHT22;11947;50.810;4.394;2023-04-03T02:56:14;2.70;99.90
23540;DHT22;11947;50.810;4.394;2023-04-03T02:58:40;2.70;99.90
23540;DHT22;11947;50.810;4.394;2023-04-03T03:01:06;2.60;99.90
23540;DHT22;11947;50.810;4.394;2023-04-03T03:03:31;2.60;99.90
23540;DHT22;11947;50.810;4.394;2023-04-03T03:06:16;2.70;99.90
23540;DHT22;11947;50.810;4.394;2023-04-03T03:08:42;2.80;99.90
23540;DHT22;11947;50.810;4.394;2023-04-03T03:11:08;2.70;99.90
23540;DHT22;11947;50.810;4.394;2023-04-03T03:13:35;2.70;99.90
23540;DHT22;11947;50.810;4.394;2023-04-03T03:16:01;2.70;99.90
23540;DHT22;11947;50.810;4.394;2023-04-03T03:18:27;2.70;99.90
23540;DHT22;11947;50.810;4.394;2023-04-03T03:20:57;2.60;99.90
23540;DHT22;11947;50.810;4.394;2023-04-03T03:23:24;2.70;99.90
23540;DHT22;11947;50.810;4.394;2023-04-03T03:26:04;2.60;99.90
23540;DHT22;11947;50.810;4.394;2023-04-03T03:28:30;2.50;99.90
23540;DHT22;11947;50.810;4.394;2023-04-03T03:30:57;2.50;99.90
23540;DHT22;11947;50.810;4.394;2023-04-03T03:33:23;2.50;99.90
23540;DHT22;11947;50.810;4.394;2023-04-03T03:35:49;2.60;99.90
23540;DHT22;11947;50.810;4.394;2023-04-03T03:38:15;2.40;99.90
23540;DHT22;11947;50.810;4.394;2023-04-03T03:40:40;2.50;99.90
23540;DHT22;11947;50.810;4.394;2023-04-03T03:43:06;2.40;99.90
23540;DHT22;11947;50.810;4.394;2023-04-03T03:45:32;2.30;99.90
23540;DHT22;11947;50.810;4.394;2023-04-03T03:47:57;2.30;99.90
23540;DHT22;11947;50.810;4.394;2023-04-03T03:50:23;2.30;99.90
23540;DHT22;11947;50.810;4.394;2023-04-03T03:52:49;2.30;99.90
23540;DHT22;11947;50.810;4.394;2023-04-03T03:55:14;2.30;99.90
23540;DHT22;11947;50.810;4.394;2023-04-03T03:57:40;2.30;99.90
23540;DHT22;11947;50.810;4.394;2023-04-03T04:00:06;2.20;99.90
23540;DHT22;11947;50.810;4.394;2023-04-03T04:02:35;2.20;99.90
23540;DHT22;11947;50.810;4.394;2023-04-03T04:05:00;2.20;99.90
23540;DHT22;11947;50.810;4.394;2023-04-03T04:07:26;2.20;99.90
23540;DHT22;11947;50.810;4.394;2023-04-03T04:09:53;2.20;99.90
23540;DHT22;11947;50.810;4.394;2023-04-03T04:12:19;2.10;99.90
23540;DHT22;11947;50.810;4.394;2023-04-03T04:14:45;2.10;99.90
23540;DHT22;11947;50.810;4.394;2023-04-03T04:17:12;2.00;99.90
23540;DHT22;11947;50.810;4.394;2023-04-03T04:19:38;2.00;99.90
23540;DHT22;11947;50.810;4.394;2023-04-03T04:22:03;2.00;99.90
23540;DHT22;11947;50.810;4.394;2023-04-03T04:24:29;2.00;99.90
23540;DHT22;11947;50.810;4.394;2023-04-03T04:26:55;2.00;99.90
23540;DHT22;11947;50.810;4.394;2023-04-03T04:29:20;1.90;99.90
23540;DHT22;11947;50.810;4.394;2023-04-03T04:31:46;1.90;99.90
23540;DHT22;11947;50.810;4.394;2023-04-03T04:34:11;1.90;99.90
23540;DHT22;11947;50.810;4.394;2023-04-03T04:36:38;2.00;99.90
23540;DHT22;11947;50.810;4.394;2023-04-03T04:39:04;1.90;99.90
23540;DHT22;11947;50.810;4.394;2023-04-03T04:41:30;2.00;99.90
23540;DHT22;11947;50.810;4.394;2023-04-03T04:43:56;2.00;99.90
23540;DHT22;11947;50.810;4.394;2023-04-03T04:46:22;2.10;99.90
23540;DHT22;11947;50.810;4.394;2023-04-03T04:48:48;2.10;99.90
23540;DHT22;11947;50.810;4.394;2023-04-03T04:51:14;2.20;99.90
23540;DHT22;11947;50.810;4.394;2023-04-03T04:53:40;2.10;99.90
23540;DHT22;11947;50.810;4.394;2023-04-03T04:56:06;2.10;99.90
23540;DHT22;11947;50.810;4.394;2023-04-03T04:58:32;2.10;99.90
23540;DHT22;11947;50.810;4.394;2023-04-03T05:01:06;2.10;99.90
23540;DHT22;11947;50.810;4.394;2023-04-03T05:03:32;2.10;99.90
23540;DHT22;11947;50.810;4.394;2023-04-03T05:05:58;2.10;99.90
23540;DHT22;11947;50.810;4.394;2023-04-03T05:08:25;2.20;99.90
23540;DHT22;11947;50.810;4.394;2023-04-03T05:10:50;2.30;99.90
23540;DHT22;11947;50.810;4.394;2023-04-03T05:13:16;2.30;99.90
23540;DHT22;11947;50.810;4.394;2023-04-03T05:15:42;2.20;99.90
23540;DHT22;11947;50.810;4.394;2023-04-03T05:18:07;2.00;99.90
23540;DHT22;11947;50.810;4.394;2023-04-03T05:20:33;2.00;99.90
23540;DHT22;11947;50.810;4.394;2023-04-03T05:22:59;1.90;99.90
23540;DHT22;11947;50.810;4.394;2023-04-03T05:25:25;2.00;99.90
23540;DHT22;11947;50.810;4.394;2023-04-03T05:27:51;1.90;99.90
23540;DHT22;11947;50.810;4.394;2023-04-03T05:30:17;1.90;99.90
23540;DHT22;11947;50.810;4.394;2023-04-03T05:32:42;1.90;99.90
23540;DHT22;11947;50.810;4.394;2023-04-03T05:35:09;1.90;99.90
23540;DHT22;11947;50.810;4.394;2023-04-03T05:37:35;1.90;99.90
23540;DHT22;11947;50.810;4.394;2023-04-03T05:40:01;2.00;99.90
23540;DHT22;11947;50.810;4.394;2023-04-03T05:42:27;2.20;99.90
23540;DHT22;11947;50.810;4.394;2023-04-03T05:44:53;2.20;99.90
23540;DHT22;11947;50.810;4.394;2023-04-03T05:47:19;2.30;99.90
23540;DHT22;11947;50.810;4.394;2023-04-03T05:49:45;2.30;99.90
23540;DHT22;11947;50.810;4.394;2023-04-03T05:52:26;2.50;99.90
23540;DHT22;11947;50.810;4.394;2023-04-03T05:54:52;2.50;99.90
23540;DHT22;11947;50.810;4.394;2023-04-03T05:57:18;2.50;99.90
23540;DHT22;11947;50.810;4.394;2023-04-03T05:59:45;2.50;99.90
23540;DHT22;11947;50.810;4.394;2023-04-03T06:02:13;2.50;99.90
23540;DHT22;11947;50.810;4.394;2023-04-03T06:04:39;2.50;99.90
23540;DHT22;11947;50.810;4.394;2023-04-03T06:07:04;2.60;99.90
23540;DHT22;11947;50.810;4.394;2023-04-03T06:09:30;2.70;99.90
23540;DHT22;11947;50.810;4.394;2023-04-03T06:11:57;2.80;99.90
23540;DHT22;11947;50.810;4.394;2023-04-03T06:14:24;2.90;99.90
23540;DHT22;11947;50.810;4.394;2023-04-03T06:16:51;3.00;99.90
23540;DHT22;11947;50.810;4.394;2023-04-03T06:19:17;3.20;99.90
23540;DHT22;11947;50.810;4.394;2023-04-03T06:21:42;3.40;99.90
23540;DHT22;11947;50.810;4.394;2023-04-03T06:24:09;3.50;99.90
23540;DHT22;11947;50.810;4.394;2023-04-03T06:26:37;3.80;99.90
23540;DHT22;11947;50.810;4.394;2023-04-03T06:29:03;4.00;99.90
23540;DHT22;11947;50.810;4.394;2023-04-03T06:31:29;4.20;99.90
23540;DHT22;11947;50.810;4.394;2023-04-03T06:33:54;4.10;99.90
23540;DHT22;11947;50.810;4.394;2023-04-03T06:36:21;4.30;99.90
23540;DHT22;11947;50.810;4.394;2023-04-03T06:38:47;4.50;99.90
23540;DHT22;11947;50.810;4.394;2023-04-03T06:41:13;4.80;99.90
23540;DHT22;11947;50.810;4.394;2023-04-03T06:43:39;5.00;99.90
23540;DHT22;11947;50.810;4.394;2023-04-03T06:46:05;5.30;99.90
23540;DHT22;11947;50.810;4.394;2023-04-03T06:48:30;5.60;99.90
23540;DHT22;11947;50.810;4.394;2023-04-03T06:50:56;5.80;99.90
23540;DHT22;11947;50.810;4.394;2023-04-03T06:53:22;6.00;99.90
23540;DHT22;11947;50.810;4.394;2023-04-03T06:55:48;6.40;99.90
23540;DHT22;11947;50.810;4.394;2023-04-03T06:58:13;6.60;99.90
23540;DHT22;11947;50.810;4.394;2023-04-03T07:00:40;6.60;99.90
23540;DHT22;11947;50.810;4.394;2023-04-03T07:03:06;6.80;99.90
23540;DHT22;11947;50.810;4.394;2023-04-03T07:05:32;6.90;99.90
23540;DHT22;11947;50.810;4.394;2023-04-03T07:07:57;6.90;99.90
23540;DHT22;11947;50.810;4.394;2023-04-03T07:10:23;7.10;99.90
23540;DHT22;11947;50.810;4.394;2023-04-03T07:12:48;7.20;99.90
23540;DHT22;11947;50.810;4.394;2023-04-03T07:15:14;7.30;99.90
23540;DHT22;11947;50.810;4.394;2023-04-03T07:17:40;7.50;99.90
23540;DHT22;11947;50.810;4.394;2023-04-03T07:20:06;7.70;99.90
23540;DHT22;11947;50.810;4.394;2023-04-03T07:22:32;7.90;99.90
23540;DHT22;11947;50.810;4.394;2023-04-03T07:24:58;7.90;99.90
23540;DHT22;11947;50.810;4.394;2023-04-03T07:27:24;8.00;99.90
23540;DHT22;11947;50.810;4.394;2023-04-03T07:29:50;8.10;99.90
23540;DHT22;11947;50.810;4.394;2023-04-03T07:32:16;8.00;99.90
23540;DHT22;11947;50.810;4.394;2023-04-03T07:34:43;7.90;99.90
23540;DHT22;11947;50.810;4.394;2023-04-03T07:37:09;8.00;99.90
23540;DHT22;11947;50.810;4.394;2023-04-03T07:39:34;8.10;99.90
23540;DHT22;11947;50.810;4.394;2023-04-03T07:42:00;8.30;99.90
23540;DHT22;11947;50.810;4.394;2023-04-03T07:44:27;8.30;99.90
23540;DHT22;11947;50.810;4.394;2023-04-03T07:46:52;8.50;99.90
23540;DHT22;11947;50.810;4.394;2023-04-03T07:49:18;8.30;99.90
23540;DHT22;11947;50.810;4.394;2023-04-03T07:51:44;8.20;99.90
23540;DHT22;11947;50.810;4.394;2023-04-03T07:54:10;8.30;99.90
23540;DHT22;11947;50.810;4.394;2023-04-03T07:56:36;8.70;99.90
23540;DHT22;11947;50.810;4.394;2023-04-03T07:59:02;8.80;99.90
23540;DHT22;11947;50.810;4.394;2023-04-03T08:01:27;8.90;99.90
23540;DHT22;11947;50.810;4.394;2023-04-03T08:03:53;9.10;99.90
23540;DHT22;11947;50.810;4.394;2023-04-03T08:06:19;9.10;99.90
23540;DHT22;11947;50.810;4.394;2023-04-03T08:08:45;9.10;99.90
23540;DHT22;11947;50.810;4.394;2023-04-03T08:11:11;9.20;99.90
23540;DHT22;11947;50.810;4.394;2023-04-03T08:13:36;9.50;99.90
23540;DHT22;11947;50.810;4.394;2023-04-03T08:16:16;9.50;99.90
23540;DHT22;11947;50.810;4.394;2023-04-03T08:18:42;9.30;99.90
23540;DHT22;11947;50.810;4.394;2023-04-03T08:21:12;9.20;99.90
23540;DHT22;11947;50.810;4.394;2023-04-03T08:23:38;9.20;99.90
23540;DHT22;11947;50.810;4.394;2023-04-03T08:26:11;8.90;99.90
23540;DHT22;11947;50.810;4.394;2023-04-03T08:28:38;9.00;99.90
23540;DHT22;11947;50.810;4.394;2023-04-03T08:31:05;9.20;99.90
23540;DHT22;11947;50.810;4.394;2023-04-03T08:33:32;9.30;99.90
23540;DHT22;11947;50.810;4.394;2023-04-03T08:35:58;9.40;99.90
23540;DHT22;11947;50.810;4.394;2023-04-03T08:38:25;9.50;99.90
23540;DHT22;11947;50.810;4.394;2023-04-03T08:47:10;9.90;99.90
23540;DHT22;11947;50.810;4.394;2023-04-03T08:49:47;10.10;99.90
23540;DHT22;11947;50.810;4.394;2023-04-03T08:52:40;10.20;99.90
23540;DHT22;11947;50.810;4.394;2023-04-03T08:57:49;10.10;99.90
23540;DHT22;11947;50.810;4.394;2023-04-03T09:00:19;10.20;99.90
23540;DHT22;11947;50.810;4.394;2023-04-03T09:02:54;10.40;99.90
23540;DHT22;11947;50.810;4.394;2023-04-03T09:08:36;10.60;99.90
23540;DHT22;11947;50.810;4.394;2023-04-03T09:11:24;10.60;99.90
23540;DHT22;11947;50.810;4.394;2023-04-03T09:14:11;10.90;99.90
23540;DHT22;11947;50.810;4.394;2023-04-03T09:16:53;11.20;99.90
23540;DHT22;11947;50.810;4.394;2023-04-03T09:22:01;11.50;99.90
23540;DHT22;11947;50.810;4.394;2023-04-03T09:24:28;11.90;99.90
23540;DHT22;11947;50.810;4.394;2023-04-03T09:27:01;11.70;99.90
23540;DHT22;11947;50.810;4.394;2023-04-03T09:29:28;11.90;99.90
23540;DHT22;11947;50.810;4.394;2023-04-03T09:32:01;12.20;99.90
23540;DHT22;11947;50.810;4.394;2023-04-03T09:34:36;13.00;99.90
23540;DHT22;11947;50.810;4.394;2023-04-03T09:37:03;13.50;99.90
23540;DHT22;11947;50.810;4.394;2023-04-03T09:39:32;14.10;99.90
23540;DHT22;11947;50.810;4.394;2023-04-03T09:42:23;14.40;99.90
23540;DHT22;11947;50.810;4.394;2023-04-03T09:44:55;14.80;99.90
23540;DHT22;11947;50.810;4.394;2023-04-03T09:47:28;15.70;99.90
23540;DHT22;11947;50.810;4.394;2023-04-03T09:52:43;16.60;99.90
23540;DHT22;11947;50.810;4.394;2023-04-03T09:55:23;17.20;99.90
23540;DHT22;11947;50.810;4.394;2023-04-03T09:58:04;17.80;99.90
23540;DHT22;11947;50.810;4.394;2023-04-03T10:00:31;19.10;99.90
23540;DHT22;11947;50.810;4.394;2023-04-03T10:02:59;20.10;99.90
23540;DHT22;11947;50.810;4.394;2023-04-03T10:05:33;20.60;97.80
23540;DHT22;11947;50.810;4.394;2023-04-03T10:08:20;20.50;96.60
23540;DHT22;11947;50.810;4.394;2023-04-03T10:10:48;20.20;95.20
23540;DHT22;11947;50.810;4.394;2023-04-03T10:13:29;20.70;94.50
23540;DHT22;11947;50.810;4.394;2023-04-03T10:16:11;21.70;93.80
23540;DHT22;11947;50.810;4.394;2023-04-03T10:18:45;22.40;91.40
23540;DHT22;11947;50.810;4.394;2023-04-03T10:32:06;23.60;81.00
23540;DHT22;11947;50.810;4.394;2023-04-03T10:34:41;25.70;75.40
23540;DHT22;11947;50.810;4.394;2023-04-03T10:37:30;24.90;73.10
23540;DHT22;11947;50.810;4.394;2023-04-03T10:40:10;25.20;72.80
23540;DHT22;11947;50.810;4.394;2023-04-03T10:46:04;24.60;68.70
23540;DHT22;11947;50.810;4.394;2023-04-03T10:48:58;25.10;68.90
23540;DHT22;11947;50.810;4.394;2023-04-03T10:51:45;25.50;66.10
23540;DHT22;11947;50.810;4.394;2023-04-03T10:54:25;26.10;68.70
23540;DHT22;11947;50.810;4.394;2023-04-03T10:57:18;27.00;67.20
23540;DHT22;11947;50.810;4.394;2023-04-03T10:59:56;27.20;63.70
23540;DHT22;11947;50.810;4.394;2023-04-03T11:02:27;27.30;60.80
23540;DHT22;11947;50.810;4.394;2023-04-03T11:05:08;26.80;59.20
23540;DHT22;11947;50.810;4.394;2023-04-03T11:07:43;26.40;58.90
23540;DHT22;11947;50.810;4.394;2023-04-03T11:10:26;25.90;58.70
23540;DHT22;11947;50.810;4.394;2023-04-03T11:13:08;25.20;59.60
23540;DHT22;11947;50.810;4.394;2023-04-03T11:15:36;25.20;62.20
23540;DHT22;11947;50.810;4.394;2023-04-03T11:18:27;28.30;60.50
23540;DHT22;11947;50.810;4.394;2023-04-03T11:21:06;28.30;57.50
23540;DHT22;11947;50.810;4.394;2023-04-03T11:23:36;28.20;57.00
23540;DHT22;11947;50.810;4.394;2023-04-03T11:26:11;28.30;57.20
23540;DHT22;11947;50.810;4.394;2023-04-03T11:28:38;28.30;54.10
23540;DHT22;11947;50.810;4.394;2023-04-03T11:34:22;29.30;54.70
23540;DHT22;11947;50.810;4.394;2023-04-03T11:36:56;28.70;51.50
23540;DHT22;11947;50.810;4.394;2023-04-03T11:39:35;28.00;52.80
23540;DHT22;11947;50.810;4.394;2023-04-03T11:42:40;27.80;52.20
23540;DHT22;11947;50.810;4.394;2023-04-03T11:45:52;27.70;53.90
23540;DHT22;11947;50.810;4.394;2023-04-03T11:53:42;28.00;50.20
23540;DHT22;11947;50.810;4.394;2023-04-03T12:01:47;28.40;51.30
23540;DHT22;11947;50.810;4.394;2023-04-03T12:04:14;27.60;52.00
23540;DHT22;11947;50.810;4.394;2023-04-03T12:06:47;26.40;53.90
23540;DHT22;11947;50.810;4.394;2023-04-03T12:14:52;28.30;51.10
23540;DHT22;11947;50.810;4.394;2023-04-03T12:17:25;27.50;49.80
23540;DHT22;11947;50.810;4.394;2023-04-03T12:19:52;27.20;51.50
23540;DHT22;11947;50.810;4.394;2023-04-03T12:22:19;27.20;49.50
23540;DHT22;11947;50.810;4.394;2023-04-03T12:24:48;26.80;50.30
23540;DHT22;11947;50.810;4.394;2023-04-03T12:27:38;25.30;49.90
23540;DHT22;11947;50.810;4.394;2023-04-03T12:30:28;24.30;50.10
23540;DHT22;11947;50.810;4.394;2023-04-03T12:33:05;23.90;52.30
23540;DHT22;11947;50.810;4.394;2023-04-03T12:38:33;26.20;50.20
23540;DHT22;11947;50.810;4.394;2023-04-03T12:44:09;27.30;48.20
23540;DHT22;11947;50.810;4.394;2023-04-03T12:46:47;27.80;48.20
23540;DHT22;11947;50.810;4.394;2023-04-03T12:49:40;29.10;46.20
23540;DHT22;11947;50.810;4.394;2023-04-03T12:52:35;30.90;45.20
23540;DHT22;11947;50.810;4.394;2023-04-03T12:55:03;30.40;43.70
23540;DHT22;11947;50.810;4.394;2023-04-03T12:57:32;29.60;44.00
23540;DHT22;11947;50.810;4.394;2023-04-03T12:59:58;27.40;45.10
23540;DHT22;11947;50.810;4.394;2023-04-03T13:02:30;26.40;45.90
23540;DHT22;11947;50.810;4.394;2023-04-03T13:04:58;25.50;47.90
23540;DHT22;11947;50.810;4.394;2023-04-03T13:07:38;26.10;47.10
23540;DHT22;11947;50.810;4.394;2023-04-03T13:12:52;27.60;45.90
23540;DHT22;11947;50.810;4.394;2023-04-03T13:15:29;28.30;45.70
23540;DHT22;11947;50.810;4.394;2023-04-03T13:17:56;27.40;43.80
23540;DHT22;11947;50.810;4.394;2023-04-03T13:25:21;29.40;41.80
23540;DHT22;11947;50.810;4.394;2023-04-03T13:27:48;28.40;43.40
23540;DHT22;11947;50.810;4.394;2023-04-03T13:32:49;29.50;43.50
23540;DHT22;11947;50.810;4.394;2023-04-03T13:35:36;28.80;42.50
23540;DHT22;11947;50.810;4.394;2023-04-03T13:38:24;28.50;42.70
23540;DHT22;11947;50.810;4.394;2023-04-03T13:40:55;26.60;43.10
23540;DHT22;11947;50.810;4.394;2023-04-03T13:43:27;26.00;45.40
23540;DHT22;11947;50.810;4.394;2023-04-03T13:46:01;27.40;44.60
23540;DHT22;11947;50.810;4.394;2023-04-03T13:48:45;28.10;44.10
23540;DHT22;11947;50.810;4.394;2023-04-03T13:53:52;28.30;43.70
23540;DHT22;11947;50.810;4.394;2023-04-03T13:58:56;27.10;43.40
23540;DHT22;11947;50.810;4.394;2023-04-03T14:01:23;26.50;43.90
23540;DHT22;11947;50.810;4.394;2023-04-03T14:04:01;26.60;44.20
23540;DHT22;11947;50.810;4.394;2023-04-03T14:06:35;26.40;44.00
23540;DHT22;11947;50.810;4.394;2023-04-03T14:09:01;26.90;44.30
23540;DHT22;11947;50.810;4.394;2023-04-03T14:11:29;26.80;44.40
23540;DHT22;11947;50.810;4.394;2023-04-03T14:13:58;27.90;43.80
23540;DHT22;11947;50.810;4.394;2023-04-03T14:16:28;26.50;44.80
23540;DHT22;11947;50.810;4.394;2023-04-03T14:18:55;26.10;45.50
23540;DHT22;11947;50.810;4.394;2023-04-03T14:21:21;26.40;46.00
23540;DHT22;11947;50.810;4.394;2023-04-03T14:23:47;27.90;46.30
23540;DHT22;11947;50.810;4.394;2023-04-03T14:26:16;28.00;45.00
23540;DHT22;11947;50.810;4.394;2023-04-03T14:28:48;26.50;43.90
23540;DHT22;11947;50.810;4.394;2023-04-03T14:31:15;24.30;46.40
23540;DHT22;11947;50.810;4.394;2023-04-03T14:33:42;24.80;45.90
23540;DHT22;11947;50.810;4.394;2023-04-03T14:36:17;24.80;46.50
23540;DHT22;11947;50.810;4.394;2023-04-03T14:38:44;24.30;46.00
23540;DHT22;11947;50.810;4.394;2023-04-03T14:41:15;24.60;46.50
23540;DHT22;11947;50.810;4.394;2023-04-03T14:43:41;23.50;47.40
23540;DHT22;11947;50.810;4.394;2023-04-03T14:46:17;23.90;47.60
23540;DHT22;11947;50.810;4.394;2023-04-03T14:48:43;23.20;46.10
23540;DHT22;11947;50.810;4.394;2023-04-03T14:51:11;22.40;48.50
23540;DHT22;11947;50.810;4.394;2023-04-03T14:53:38;22.50;47.20
23540;DHT22;11947;50.810;4.394;2023-04-03T14:56:11;22.80;49.10
23540;DHT22;11947;50.810;4.394;2023-04-03T14:58:37;22.60;47.50
23540;DHT22;11947;50.810;4.394;2023-04-03T15:01:03;21.60;48.70
23540;DHT22;11947;50.810;4.394;2023-04-03T15:03:29;20.40;48.40
23540;DHT22;11947;50.810;4.394;2023-04-03T15:05:54;19.10;52.40
23540;DHT22;11947;50.810;4.394;2023-04-03T15:08:25;17.60;54.70
23540;DHT22;11947;50.810;4.394;2023-04-03T15:10:52;16.40;55.90
23540;DHT22;11947;50.810;4.394;2023-04-03T15:13:19;15.90;56.90
23540;DHT22;11947;50.810;4.394;2023-04-03T15:15:46;15.20;57.70
23540;DHT22;11947;50.810;4.394;2023-04-03T15:18:41;14.10;60.70
23540;DHT22;11947;50.810;4.394;2023-04-03T15:21:06;13.80;63.30
23540;DHT22;11947;50.810;4.394;2023-04-03T15:23:32;13.80;62.10
23540;DHT22;11947;50.810;4.394;2023-04-03T15:25:58;13.60;62.80
23540;DHT22;11947;50.810;4.394;2023-04-03T15:28:40;13.30;64.30
23540;DHT22;11947;50.810;4.394;2023-04-03T15:31:07;13.00;65.00
23540;DHT22;11947;50.810;4.394;2023-04-03T15:33:34;12.90;67.50
23540;DHT22;11947;50.810;4.394;2023-04-03T15:35:59;12.80;68.20
23540;DHT22;11947;50.810;4.394;2023-04-03T15:38:25;12.60;69.20
23540;DHT22;11947;50.810;4.394;2023-04-03T15:40:51;12.30;67.50
23540;DHT22;11947;50.810;4.394;2023-04-03T15:43:17;11.90;69.70
23540;DHT22;11947;50.810;4.394;2023-04-03T15:45:44;11.60;71.40
23540;DHT22;11947;50.810;4.394;2023-04-03T15:48:11;11.50;72.30
23540;DHT22;11947;50.810;4.394;2023-04-03T15:50:38;11.40;72.90
23540;DHT22;11947;50.810;4.394;2023-04-03T15:53:04;11.50;72.90
23540;DHT22;11947;50.810;4.394;2023-04-03T15:55:32;11.50;73.80
23540;DHT22;11947;50.810;4.394;2023-04-03T15:57:58;11.40;73.40
23540;DHT22;11947;50.810;4.394;2023-04-03T16:00:24;11.10;74.80
23540;DHT22;11947;50.810;4.394;2023-04-03T16:02:53;11.10;73.10
23540;DHT22;11947;50.810;4.394;2023-04-03T16:05:20;10.80;74.90
23540;DHT22;11947;50.810;4.394;2023-04-03T16:07:46;10.80;75.80
23540;DHT22;11947;50.810;4.394;2023-04-03T16:10:13;10.90;75.80
23540;DHT22;11947;50.810;4.394;2023-04-03T16:12:39;10.70;76.20
23540;DHT22;11947;50.810;4.394;2023-04-03T16:15:06;10.60;76.70
23540;DHT22;11947;50.810;4.394;2023-04-03T16:17:33;10.60;77.10
23540;DHT22;11947;50.810;4.394;2023-04-03T16:19:59;10.50;77.50
23540;DHT22;11947;50.810;4.394;2023-04-03T16:22:26;10.70;77.60
23540;DHT22;11947;50.810;4.394;2023-04-03T16:24:53;10.70;76.80
23540;DHT22;11947;50.810;4.394;2023-04-03T16:27:21;10.50;77.60
23540;DHT22;11947;50.810;4.394;2023-04-03T16:29:46;10.40;79.30
23540;DHT22;11947;50.810;4.394;2023-04-03T16:32:13;10.30;79.70
23540;DHT22;11947;50.810;4.394;2023-04-03T16:34:39;10.10;79.70
23540;DHT22;11947;50.810;4.394;2023-04-03T16:37:06;10.10;80.90
23540;DHT22;11947;50.810;4.394;2023-04-03T16:39:34;10.20;82.00
23540;DHT22;11947;50.810;4.394;2023-04-03T16:42:02;10.10;81.50
23540;DHT22;11947;50.810;4.394;2023-04-03T16:44:28;10.10;82.20
23540;DHT22;11947;50.810;4.394;2023-04-03T16:46:57;10.00;82.10
23540;DHT22;11947;50.810;4.394;2023-04-03T16:49:22;10.00;83.10
23540;DHT22;11947;50.810;4.394;2023-04-03T16:51:49;9.80;83.70
23540;DHT22;11947;50.810;4.394;2023-04-03T16:54:14;9.70;83.70
23540;DHT22;11947;50.810;4.394;2023-04-03T16:56:40;9.70;83.60
23540;DHT22;11947;50.810;4.394;2023-04-03T16:59:06;9.80;84.00
23540;DHT22;11947;50.810;4.394;2023-04-03T17:01:32;9.70;83.80
23540;DHT22;11947;50.810;4.394;2023-04-03T17:03:58;9.60;84.70
23540;DHT22;11947;50.810;4.394;2023-04-03T17:06:24;9.60;85.20
23540;DHT22;11947;50.810;4.394;2023-04-03T17:08:51;9.60;85.20
23540;DHT22;11947;50.810;4.394;2023-04-03T17:11:17;9.60;85.00
23540;DHT22;11947;50.810;4.394;2023-04-03T17:13:43;9.50;85.50
23540;DHT22;11947;50.810;4.394;2023-04-03T17:16:11;9.40;86.10
23540;DHT22;11947;50.810;4.394;2023-04-03T17:18:38;9.40;86.20